Aloha, Oregon
Current Conditions -  °F | °C
As of 6:53 AM on Sunday 23 Nov 2014 (Local Time) from KHIO Reporting Station
Broken Clouds Broken Clouds  
Wind Chill: 16°   Ceiling: 6500
Heat Index: 16°   Visibility: 10mi
Dew Point:   Wind: 13mph
Humidity: 57%   Direction: 180°S
Pressure: 30.27"   Gusts: NA
Location:  45.49°N, 122.86°W
Report Text: KHIO 231453Z 18011KT 10SM BKN065 16/07 A3027 RMK AO2 SLP248 T01560072 50000
Loading
Personal Weather Stations






























Interactive Weather Map New forecast layout! Learn more

10-Day Weather Forecast

Advertisements
Track Severe Weather on mobile